AirNav   TITAN Aviation Fuels
 
 1435 users online  

CL33 Pauma Valley Air Park
Pauma Valley, California, USA

GOING TO PAUMA VALLEY?


FAA INFORMATION EFFECTIVE 20 MAY 2021

Location

FAA Identifier: CL33
Lat/Long: 33-18-38.1230N 116-59-53.1000W
33-18.635383N 116-59.885000W
33.3105897,-116.9980833
(estimated)
Elevation: 756 ft. / 230 m (estimated)
Variation: 13E (1985)
From city: 1 mile NW of PAUMA VALLEY, CA
Time zone: UTC -7 (UTC -8 during Standard Time)
Zip code: 92061

Airport Operations

Airport use: Private use. Permission required prior to landing
Activation date: 09/1966
Control tower: no
ARTCC: LOS ANGELES CENTER
FSS: SAN DIEGO FLIGHT SERVICE STATION
Attendance: UNATNDD
Wind indicator: yes
Segmented circle: yes

Airport Communications

UNICOM: 122.725
WX AWOS-3P at L18 (13 nm W): 118.425 (760-723-6073)
WX ASOS at RNM (17 nm S): PHONE 760-789-7699
WX AWOS-3 at F70 (17 nm N): 119.025 (951-696-1018)
WX ASOS at CRQ (18 nm SW): PHONE 760-930-0864
WX ASOS at OKB (19 nm W): 127.8 (760-439-9683)

Nearby radio navigation aids

VOR radial/distance  VOR name  Freq  Var
OCNr064/21.5OCEANSIDE VORTAC115.3015E
JLIr281/23.1JULIAN VORTAC114.0015E
HDFr147/(29.5)HOMELAND VOR113.4014E
MZBr005/33.7MISSION BAY VORTAC117.8015E

Airport Services

Airframe service: NONE
Powerplant service: NONE

Runway Information

Runway 11/29

Dimensions: 2700 x 50 ft. / 823 x 15 m
Surface: asphalt
RUNWAY 11  RUNWAY 29
Traffic pattern: leftright

Airport Ownership and Management from official FAA records

Ownership: Privately-owned
Owner: SJS RAINBOW, LLC
3199 STONEFIELD DRIVE
JAMUL, CA 91935
Phone 760-742-3721
FRED CLAREY, CHAIRMAN, PAUMA VALLEY AIRPORT COMMITTEE, 760-305-2277.
Manager: PAUL DEVINE
P.O. BOX 206
PAUMA VALLEY, CA 92061
Phone 760-742-3721
PAUL DEVINE, GENERAL MANAGER. 24 HOUR SECURITY PATROL, SEARCH AND RESCUE CONTACT 760-742-3112.

Airport Operational Statistics

Aircraft based on the field: 8
Single engine airplanes: 6
Multi engine airplanes: 2
    

Additional Remarks

FOR CD CTC LOS ANGELES ARTCC AT 661-575-2079.

Instrument Procedures

There are no published instrument procedures at CL33.

Some nearby airports with instrument procedures:

L18 - Fallbrook Community Airpark (13 nm W)
KRNM - Ramona Airport (17 nm S)
F70 - French Valley Airport (17 nm N)
KCRQ - Mc Clellan-Palomar Airport (18 nm SW)
KNFG - Camp Pendleton MCAS (Munn Field) Airport (18 nm W)
KOKB - Bob Maxwell Memorial Airfield (19 nm W)
 
Loc | Ops | Rwys | IFR | FBO | Links
Com | Nav | Svcs | Stats | Notes

San Bernardino International Airport Authority
 
Area around CL33 (Pauma Valley Air Park)
 
Road maps at: MapQuest Bing Google
 
Aerial photo
WARNING: Photo may not be current or correct
Aerial photo of CL33 (Pauma Valley Air Park)
Do you have a better or more recent aerial photo of Pauma Valley Air Park that you would like to share? If so, please send us your photo.

 
Sectional chart

 
Airport distance calculator
Flying to Pauma Valley Air Park? Find the distance to fly.

From to CL33

Sunrise and sunset
Times for 16-Jun-2021
 Local
(UTC-7)
 Zulu
(UTC)
Morning civil twilight05:1012:10
Sunrise05:3912:39
Sunset19:5802:58
Evening civil twilight20:2703:27

Current date and time
Zulu (UTC)  16-Jun-2021 17:28:46
Local (UTC-7)  16-Jun-2021 10:28:46
 
METAR
KL18 
13nm W 
161715Z AUTO 26004KT 10SM CLR 25/15 A2988 RMK AO2
KNFG 
17nm W 
161655Z 23007KT 8SM CLR 22/16 A2987 RMK AO2 SLP115 T02220161
KF70 
17nm N 
161715Z AUTO 21006KT 10SM CLR 29/14 A2988 RMK AO1
KRNM 
17nm S 
161653Z 30008KT 10SM CLR 26/14 A2989 RMK AO2 SLP106 T02560139
KCRQ 
18nm SW 
161708Z VRB03KT 5SM HZ OVC005 19/16 A2987 RMK AO2 T01890161
KOKB 
19nm W 
161652Z AUTO 25005KT 6SM BR OVC006 19/17 A2987 RMK AO2 SLP114 T01890167
KHMT 
25nm N 
161715Z AUTO 18003KT 10SM CLR 33/10 A2988 RMK AO2 T03350103
TAF
KNFG 
17nm W 
1615/1715 VRB05KT 9999 SCT200 QNH2984INS BECMG 1618/1620 22010KT 9999 FEW200 QNH2982INS TEMPO 1620/1702 22010G18KT FM170300 VRB05KT 9999 SCT007 QNH2979INS T28/1621Z T15/1713Z
KCRQ 
18nm SW 
161504Z 1615/1712 14005KT P6SM FEW007 BKN200 TEMPO 1615/1617 3SM BR OVC006 FM161800 22008KT P6SM BKN200 FM170200 17005KT P6SM FEW007 SCT200 TEMPO 1708/1712 BKN006
NOTAMs
Click for the latest NOTAMs
NOTAMs are issued by the DoD/FAA and will open in a separate window not controlled by AirNav.

 

 
 

Would you like to see your business listed on this page?

 If your business provides an interesting product or service to pilots, flight crews, aircraft, or users of the Pauma Valley Air Park, you should consider listing it here.  To start the listing process, click on the button below
 
Add a business
 

Other Pages about Pauma Valley Air Park

www.paumavalleycc.com/...
 
Update a link
 
Copyright © AirNav, LLC. All rights reserved. Privacy Policy  Contact